Time;durP1;ratioP1;P1;durP2;ratioP2;P2;SDS_P1;SDS_P2;PMS_P1;PMS_P2;Temp;Humidity;BMP_temperature;BMP_pressure;BME280_temperature;BME280_humidity;BME280_pressure;Samples;Min_cycle;Max_cycle;Signal;HPM_P1;HPM_P2
2022/12/22 03:28:07;;;;;;;33.05;16.33;;;;;;;9.06;100.00;100177.66;5331363;27;20051;-83
2022/12/22 03:30:38;;;;;;;;;;;;;;;9.15;100.00;100174.13;5325799;27;20031;-83
2022/12/22 03:33:10;;;;;;;29.15;16.48;;;;;;;9.02;100.00;100169.13;5320383;28;19934;-83
2022/12/22 03:35:43;;;;;;;36.38;17.70;;;;;;;8.98;100.00;100157.13;5304811;28;20024;-83
2022/12/22 03:38:14;;;;;;;17.95;12.32;;;;;;;9.07;100.00;100168.69;5319367;27;20080;-83
2022/12/22 03:40:46;;;;;;;39.65;18.60;;;;;;;9.02;100.00;100163.81;5336036;27;20020;-83
2022/12/22 03:46:31;;;;;;;41.60;19.13;;;;;;;8.99;100.00;100155.28;5325441;28;20044;-84
2022/12/22 03:49:09;;;;;;;37.65;17.73;;;;;;;8.95;100.00;100148.59;5322310;28;20480;-83
2022/12/22 03:51:44;;;;;;;38.42;18.20;;;;;;;8.90;100.00;100146.38;5325113;27;20027;-83
2022/12/22 03:54:18;;;;;;;33.42;17.92;;;;;;;8.90;100.00;100149.03;5341194;27;20057;-83
2022/12/22 03:56:51;;;;;;;38.88;18.02;;;;;;;8.90;100.00;100154.38;5307075;27;20036;-83
2022/12/22 03:59:23;;;;;;;37.42;18.48;;;;;;;8.89;100.00;100155.38;5345761;27;20459;-83
2022/12/22 04:01:54;;;;;;;35.65;18.00;;;;;;;8.89;100.00;100145.56;5327589;27;20103;-83
2022/12/22 04:04:26;;;;;;;35.50;18.67;;;;;;;8.86;100.00;100140.53;5324996;27;20036;-84
2022/12/22 04:06:59;;;;;;;41.50;18.70;;;;;;;8.79;100.00;100128.81;5305679;27;20170;-82
2022/12/22 04:09:31;;;;;;;45.47;19.58;;;;;;;8.83;100.00;100142.66;5337853;27;20138;-82
2022/12/22 04:14:52;;;;;;;29.77;15.82;;;;;;;8.85;100.00;100136.22;5318281;27;20032;-83
2022/12/22 04:17:23;;;;;;;48.38;18.95;;;;;;;8.86;100.00;100142.34;5330913;27;20039;-83
2022/12/22 04:19:55;;;;;;;30.88;15.63;;;;;;;8.84;100.00;100145.16;5333342;27;20021;-82
2022/12/22 04:22:26;;;;;;;27.98;15.38;;;;;;;8.88;100.00;100137.72;5334556;27;20039;-83
2022/12/22 04:24:58;;;;;;;21.88;13.00;;;;;;;8.88;100.00;100129.75;5326277;27;20020;-83
2022/12/22 04:27:29;;;;;;;28.70;15.68;;;;;;;8.89;100.00;100132.25;5330057;27;20567;-83
2022/12/22 04:30:01;;;;;;;26.92;15.73;;;;;;;8.92;100.00;100144.41;5327434;27;20028;-84
2022/12/22 04:32:34;;;;;;;19.63;12.15;;;;;;;8.95;100.00;100148.59;5317186;27;20547;-83
2022/12/22 04:35:06;;;;;;;22.02;12.75;;;;;;;8.92;100.00;100147.06;5342502;27;20023;-83
2022/12/22 04:37:38;;;;;;;19.02;12.07;;;;;;;8.91;100.00;100156.06;5337447;27;20039;-83
2022/12/22 04:40:10;;;;;;;29.15;10.23;;;;;;;8.92;100.00;100147.06;5316373;27;20032;-83
2022/12/22 04:42:41;;;;;;;78.90;13.63;;;;;;;8.83;100.00;100153.28;5321820;28;20135;-83
2022/12/22 04:45:13;;;;;;;77.57;12.05;;;;;;;8.79;100.00;100165.22;5341073;27;20202;-83
2022/12/22 04:47:45;;;;;;;52.72;11.13;;;;;;;8.74;100.00;100157.66;5343947;27;20024;-83
2022/12/22 04:50:16;;;;;;;59.65;11.52;;;;;;;8.77;100.00;100156.56;5322937;27;20051;-83
2022/12/22 04:52:48;;;;;;;33.25;9.73;;;;;;;8.70;100.00;100150.97;5321694;28;20020;-84
2022/12/22 04:55:25;;;;;;;14.98;9.93;;;;;;;8.72;100.00;100148.19;5339741;27;20027;-83
2022/12/22 04:57:59;;;;;;;83.60;12.18;;;;;;;8.69;100.00;100155.44;5342151;27;20120;-83
2022/12/22 05:00:59;;;;;;;99.72;15.98;;;;;;;8.60;100.00;100129.75;5334770;27;20507;-83
2022/12/22 05:04:11;;;;;;;95.55;14.43;;;;;;;8.74;100.00;100141.72;5310346;27;20032;-83
2022/12/22 05:06:51;;;;;;;99.55;16.70;;;;;;;8.63;100.00;100129.44;5312183;27;20471;-83
2022/12/22 05:09:55;;;;;;;89.40;16.67;;;;;;;8.72;100.00;100142.84;5321237;27;20050;-83
2022/12/22 05:15:29;;;;;;;69.57;13.65;;;;;;;8.56;100.00;100128.38;5329988;27;20035;-83
2022/12/22 05:18:55;;;;;;;37.58;12.88;;;;;;;8.62;100.00;100150.88;5316671;27;20051;-83
2022/12/22 05:21:59;;;;;;;34.92;12.05;;;;;;;8.60;100.00;100158.16;5318311;27;20103;-83
2022/12/22 05:25:11;;;;;;;187.07;20.25;;;;;;;8.48;100.00;100163.63;5320506;27;20772;-83
2022/12/22 05:28:17;;;;;;;75.05;13.98;;;;;;;8.43;100.00;100167.72;5324354;27;20889;-83
2022/12/22 05:31:13;;;;;;;184.48;17.77;;;;;;;8.39;100.00;100164.47;5321870;27;20069;-83
2022/12/22 05:37:34;;;;;;;107.68;12.73;;;;;;;8.40;100.00;100165.34;5327551;27;20185;-83
2022/12/22 05:40:27;;;;;;;162.75;14.60;;;;;;;8.38;100.00;100172.59;5329066;27;20032;-84
2022/12/22 05:43:01;;;;;;;60.83;12.57;;;;;;;8.32;100.00;100166.88;5345037;27;20036;-83
2022/12/22 05:45:45;;;;;;;159.68;16.70;;;;;;;8.32;100.00;100176.69;5328561;27;20036;-83
2022/12/22 05:48:20;;;;;;;153.45;15.88;;;;;;;8.10;100.00;100143.31;5333786;27;20071;-84
2022/12/22 05:51:00;;;;;;;153.32;15.75;;;;;;;8.23;100.00;100158.94;5326651;27;20047;-83
2022/12/22 05:53:39;;;;;;;82.03;13.98;;;;;;;8.39;100.00;100185.75;5322030;27;20059;-83
2022/12/22 05:56:16;;;;;;;144.30;15.40;;;;;;;8.20;100.00;100168.03;5342550;27;20455;-83
2022/12/22 05:59:09;;;;;;;49.85;10.43;;;;;;;8.47;100.00;100201.03;5329050;27;20077;-83
2022/12/22 06:01:58;;;;;;;98.88;15.48;;;;;;;8.20;100.00;100172.50;5330878;27;20051;-83
2022/12/22 06:04:35;;;;;;;35.67;9.82;;;;;;;8.53;100.00;100216.38;5328201;27;20035;-83
2022/12/22 06:07:15;;;;;;;37.15;11.95;;;;;;;8.49;100.00;100215.00;5332934;27;20472;-83
2022/12/22 06:09:49;;;;;;;44.42;14.23;;;;;;;8.60;100.00;100228.09;5326524;27;20043;-83
2022/12/22 06:13:03;;;;;;;26.90;12.15;;;;;;;8.69;100.00;100232.53;5330464;27;20027;-83
2022/12/22 06:16:28;;;;;;;33.28;12.55;;;;;;;8.74;100.00;100241.94;5268190;28;20044;-83
2022/12/22 06:19:03;;;;;;;19.15;10.90;;;;;;;8.52;100.00;100204.09;5310069;27;20056;-83
2022/12/22 06:22:09;;;;;;;60.03;17.95;;;;;;;8.73;100.00;100245.56;5330806;27;20048;-83
2022/12/22 06:25:10;;;;;;;50.05;18.27;;;;;;;8.74;100.00;100253.38;5279432;28;20504;-83
2022/12/22 06:27:57;;;;;;;66.47;21.23;;;;;;;8.60;100.00;100237.91;5246882;28;20450;-83
2022/12/22 06:31:04;;;;;;;56.40;19.20;;;;;;;8.66;100.00;100247.94;5295689;28;20044;-83
2022/12/22 06:33:44;;;;;;;67.88;23.83;;;;;;;8.67;100.00;100252.28;5291361;28;20032;-83
2022/12/22 06:36:22;;;;;;;72.78;25.55;;;;;;;8.76;100.00;100271.88;5287270;28;20123;-83
2022/12/22 06:39:03;;;;;;;79.30;27.88;;;;;;;8.51;100.00;100243.09;5305301;28;20120;-83
2022/12/22 06:44:53;;;;;;;82.90;28.45;;;;;;;8.59;100.00;100252.16;5308057;28;20032;-83
2022/12/22 06:47:30;;;;;;;93.75;29.08;;;;;;;8.75;100.00;100279.00;5289864;28;20044;-82
2022/12/22 06:50:12;;;;;;;63.08;22.38;;;;;;;8.83;100.00;100286.25;5291847;28;20114;-83
2022/12/22 06:53:03;;;;;;;76.88;25.05;;;;;;;8.71;100.00;100272.28;5315862;27;20058;-83
2022/12/22 06:56:03;;;;;;;;;;;;;;;;;;;;;
2022/12/22 07:03:35;;;;;;;88.70;29.73;;;;;;;8.79;100.00;100301.66;5249310;28;20128;-83
2022/12/22 07:06:26;;;;;;;95.18;29.80;;;;;;;8.81;100.00;100320.13;5191421;28;20047;-83
2022/12/22 07:09:18;;;;;;;88.90;30.35;;;;;;;8.81;100.00;100333.44;5202627;28;20038;-83
2022/12/22 07:12:11;;;;;;;103.20;31.17;;;;;;;8.62;100.00;100318.34;5237680;28;20041;-83
2022/12/22 07:21:25;;;;;;;77.60;30.13;;;;;;;8.68;100.00;100347.03;5291446;28;20028;-83
2022/12/22 07:24:25;;;;;;;102.00;30.55;;;;;;;8.66;100.00;100344.53;5283905;28;20037;-83
2022/12/22 07:27:25;;;;;;;66.88;25.02;;;;;;;8.64;100.00;100345.63;5285778;28;20044;-83
2022/12/22 07:30:11;;;;;;;97.47;32.28;;;;;;;8.50;100.00;100341.59;5307731;27;20040;-83
2022/12/22 07:32:58;;;;;;;68.95;25.55;;;;;;;8.55;100.00;100338.50;5332481;27;20107;-83
2022/12/22 07:35:39;;;;;;;75.03;25.65;;;;;;;8.49;100.00;100337.25;5340136;27;20115;-83
2022/12/22 07:38:24;;;;;;;74.25;25.17;;;;;;;8.51;100.00;100344.09;5345306;27;20024;-83
2022/12/22 07:44:24;;;;;;;98.10;30.02;;;;;;;8.52;100.00;100360.91;5321345;27;20119;-82
2022/12/22 07:46:55;;;;;;;86.32;27.65;;;;;;;8.35;100.00;100348.28;5329674;27;20054;-82
2022/12/22 07:52:26;;;;;;;143.63;37.70;;;;;;;8.27;100.00;100384.34;5328838;27;20063;-83
2022/12/22 07:55:12;;;;;;;;;;;;;;;;;;;;;
2022/12/22 07:58:03;;;;;;;136.48;37.00;;;;;;;8.05;100.00;100361.56;5339130;27;41440;-83
2022/12/22 08:00:40;;;;;;;122.13;36.00;;;;;;;8.02;100.00;100374.28;5331695;27;20032;-82
2022/12/22 08:03:12;;;;;;;126.30;38.00;;;;;;;8.15;100.00;100409.38;5323737;27;20032;-82
2022/12/22 08:05:45;;;;;;;142.68;38.80;;;;;;;8.26;100.00;100429.69;5327976;27;20051;-82
2022/12/22 08:08:21;;;;;;;127.68;36.90;;;;;;;8.23;100.00;100424.63;5337950;27;20068;-83
2022/12/22 08:11:03;;;;;;;112.93;37.50;;;;;;;8.22;100.00;100430.91;5323960;27;20134;-83
2022/12/22 08:13:48;;;;;;;137.38;39.38;;;;;;;8.30;100.00;100450.50;5333412;27;20119;-83
2022/12/22 08:16:36;;;;;;;133.70;38.58;;;;;;;8.31;100.00;100449.53;5312693;27;20078;-83
2022/12/22 08:19:12;;;;;;;125.32;38.85;;;;;;;8.35;100.00;100451.94;5315748;27;20040;-83
2022/12/22 08:21:47;;;;;;;121.07;37.70;;;;;;;8.35;100.00;100454.59;5321151;27;20127;-83
2022/12/22 08:24:19;;;;;;;126.50;37.60;;;;;;;8.36;100.00;100457.09;5323427;27;20727;-82
2022/12/22 08:26:55;;;;;;;127.03;37.20;;;;;;;8.42;100.00;100458.38;5336235;27;20691;-83
2022/12/22 08:29:35;;;;;;;105.43;33.70;;;;;;;8.40;100.00;100445.22;5319014;28;20498;-83
2022/12/22 08:32:20;;;;;;;111.28;36.72;;;;;;;8.33;100.00;100444.94;5340058;27;20474;-83
2022/12/22 08:34:56;;;;;;;108.78;36.08;;;;;;;8.26;100.00;100449.13;5334196;27;20118;-82
2022/12/22 08:37:31;;;;;;;;;;;;;;;8.49;100.00;100480.81;5340166;27;20561;-83
2022/12/22 08:40:09;;;;;;;96.15;35.42;;;;;;;8.29;100.00;100488.72;5323313;27;20374;-83
2022/12/22 08:42:44;;;;;;;95.90;34.75;;;;;;;8.29;100.00;100509.09;5324372;27;20130;-81
2022/12/22 08:45:16;;;;;;;102.32;34.30;;;;;;;8.30;100.00;100521.44;5342903;27;20492;-82
2022/12/22 08:47:47;;;;;;;95.80;35.17;;;;;;;8.13;100.00;100509.63;5344905;27;20120;-82
2022/12/22 08:50:21;;;;;;;88.38;33.58;;;;;;;8.17;100.00;100524.34;5346745;27;20028;-82
2022/12/22 08:53:01;;;;;;;105.28;36.17;;;;;;;8.23;100.00;100538.88;5347051;27;20019;-82
2022/12/22 08:55:33;;;;;;;95.68;36.22;;;;;;;8.14;100.00;100529.91;5332474;27;20109;-82
2022/12/22 08:58:06;;;;;;;106.63;38.20;;;;;;;8.04;100.00;100518.41;5335558;27;20025;-82
2022/12/22 09:00:40;;;;;;;95.72;35.90;;;;;;;8.13;100.00;100546.81;5323816;28;20093;-82
2022/12/22 09:03:12;;;;;;;87.68;35.20;;;;;;;7.87;100.00;100530.47;5328036;28;20024;-82
2022/12/22 09:05:43;;;;;;;95.85;35.60;;;;;;;7.95;100.00;100566.03;5330482;27;20074;-82
2022/12/22 09:08:17;;;;;;;99.15;36.17;;;;;;;7.74;100.00;100543.97;5337748;27;20020;-82
2022/12/22 09:10:51;;;;;;;103.07;36.45;;;;;;;7.60;100.00;100531.03;5340279;27;20043;-82
2022/12/22 09:13:25;;;;;;;101.93;35.22;;;;;;;7.70;100.00;100548.72;5333688;27;20030;-82
2022/12/22 09:15:57;;;;;;;102.40;37.40;;;;;;;7.72;100.00;100554.72;5334842;27;20027;-82
2022/12/22 09:18:37;;;;;;;100.60;36.92;;;;;;;7.63;100.00;100549.38;5336981;27;20028;-82
2022/12/22 09:21:10;;;;;;;94.55;35.33;;;;;;;7.61;100.00;100560.13;5347649;27;20040;-82
2022/12/22 09:23:42;;;;;;;102.18;37.83;;;;;;;7.45;100.00;100552.63;5316424;27;20028;-82
2022/12/22 09:26:24;;;;;;;102.82;36.78;;;;;;;7.75;100.00;100572.22;5308775;27;20040;-81
2022/12/22 09:28:56;;;;;;;113.65;38.97;;;;;;;7.59;100.00;100556.75;5327534;27;20134;-82
2022/12/22 09:31:28;;;;;;;107.25;40.17;;;;;;;7.81;100.00;100566.38;5325919;28;20515;-82
2022/12/22 09:34:00;;;;;;;107.35;40.67;;;;;;;7.90;100.00;100560.25;5333763;27;20024;-82
2022/12/22 09:36:42;;;;;;;101.20;40.10;;;;;;;7.97;100.00;100557.09;5324931;27;20532;-81
2022/12/22 09:39:16;;;;;;;105.63;41.08;;;;;;;8.10;100.00;100571.00;5339851;27;20096;-82
2022/12/22 09:42:00;;;;;;;112.35;43.00;;;;;;;8.35;100.00;100587.47;5331002;27;20535;-82
2022/12/22 09:44:43;;;;;;;98.13;39.75;;;;;;;8.26;100.00;100594.44;5334752;27;20044;-82
2022/12/22 09:47:34;;;;;;;110.15;39.75;;;;;;;8.43;100.00;100599.16;5323319;27;20041;-82
2022/12/22 09:50:22;;;;;;;106.80;42.97;;;;;;;8.19;100.00;100593.25;5331181;27;20391;-82
2022/12/22 09:53:02;;;;;;;92.40;40.58;;;;;;;8.07;100.00;100598.66;5329889;27;20114;-83
2022/12/22 09:55:43;;;;;;;85.40;39.72;;;;;;;7.98;100.00;100604.78;5330272;27;20044;-82
2022/12/22 09:58:25;;;;;;;92.75;40.97;;;;;;;7.91;100.00;100599.13;5332184;27;20039;-83
2022/12/22 10:01:27;;;;;;;89.50;41.25;;;;;;;8.07;100.00;100603.16;5323019;27;20029;-82
2022/12/22 10:04:23;;;;;;;96.45;41.72;;;;;;;8.22;100.00;100595.66;5329095;27;20094;-82
2022/12/22 10:07:04;;;;;;;84.53;38.13;;;;;;;8.44;100.00;100622.06;5328079;27;20054;-83
2022/12/22 10:09:52;;;;;;;83.80;36.72;;;;;;;8.45;100.00;100622.91;5333444;27;20388;-83
2022/12/22 10:12:24;;;;;;;79.95;33.88;;;;;;;8.45;100.00;100621.09;5329805;27;20566;-83
2022/12/22 10:15:11;;;;;;;73.57;34.80;;;;;;;8.30;100.00;100628.56;5333615;27;20542;-83
2022/12/22 10:18:06;;;;;;;80.50;33.22;;;;;;;8.20;100.00;100616.19;5333056;27;20019;-82
2022/12/22 10:20:39;;;;;;;62.90;27.88;;;;;;;8.16;100.00;100630.72;5335617;27;20054;-83
2022/12/22 10:23:17;;;;;;;60.85;28.05;;;;;;;8.00;100.00;100599.34;5333386;27;20044;-83
2022/12/22 10:25:54;;;;;;;51.75;24.38;;;;;;;8.04;100.00;100620.16;5333636;27;20685;-83
2022/12/22 10:28:39;;;;;;;57.50;25.35;;;;;;;8.19;100.00;100628.66;5339611;27;20042;-83
2022/12/22 10:31:17;;;;;;;54.80;23.85;;;;;;;8.33;100.00;100632.78;5324877;27;20019;-83
2022/12/22 10:33:55;;;;;;;50.72;25.65;;;;;;;8.21;100.00;100620.56;5340043;27;20028;-83
2022/12/22 10:36:31;;;;;;;44.13;21.70;;;;;;;8.29;100.00;100626.03;5326452;28;20032;-83
2022/12/22 10:39:10;;;;;;;43.40;23.77;;;;;;;8.22;100.00;100612.47;5354394;27;20084;-83
2022/12/22 10:42:16;;;;;;;35.90;19.65;;;;;;;8.17;100.00;100625.28;5326191;27;20067;-82
2022/12/22 10:44:53;;;;;;;40.70;21.13;;;;;;;8.33;100.00;100628.28;5321656;27;20032;-83
2022/12/22 10:47:28;;;;;;;46.03;21.90;;;;;;;8.53;100.00;100612.44;5320217;28;20036;-82
2022/12/22 10:50:04;;;;;;;38.85;20.13;;;;;;;8.62;100.00;100629.41;5341064;27;20056;-83
2022/12/22 10:52:41;;;;;;;;;;;;;;;8.81;100.00;100640.09;5325013;27;20025;-83
2022/12/22 10:55:48;;;;;;;45.00;22.63;;;;;;;8.92;100.00;100643.63;5334295;27;19912;-83
2022/12/22 10:58:21;;;;;;;37.50;20.70;;;;;;;8.95;100.00;100632.72;5322352;27;20035;-83
2022/12/22 11:01:03;;;;;;;32.20;18.20;;;;;;;9.03;100.00;100651.50;5326362;27;20077;-82
2022/12/22 11:03:37;;;;;;;35.85;19.95;;;;;;;8.75;100.00;100642.47;5325028;28;20147;-82
2022/12/22 11:06:12;;;;;;;28.42;16.73;;;;;;;8.73;100.00;100658.56;5321731;27;20056;-82
2022/12/22 11:11:58;;;;;;;34.00;17.45;;;;;;;9.00;100.00;100635.81;5325937;27;20020;-82
2022/12/22 11:15:01;;;;;;;29.63;16.67;;;;;;;9.96;100.00;100668.75;5302771;28;20033;-82
2022/12/22 11:17:54;;;;;;;29.17;17.23;;;;;;;10.30;100.00;100660.25;5310605;28;20107;-82
2022/12/22 11:20:44;;;;;;;24.85;17.52;;;;;;;9.90;100.00;100657.84;5335486;27;20056;-82
2022/12/22 11:23:57;;;;;;;31.63;21.23;;;;;;;10.33;100.00;100657.34;5322360;28;20032;-82
2022/12/22 11:26:52;;;;;;;31.00;22.00;;;;;;;10.88;100.00;100629.84;5341644;27;20040;-82
2022/12/22 11:29:45;;;;;;;30.45;21.00;;;;;;;10.55;100.00;100658.81;5304542;28;20928;-83
2022/12/22 11:32:51;;;;;;;31.63;22.02;;;;;;;11.20;100.00;100659.72;5304394;28;20500;-82
2022/12/22 11:35:41;;;;;;;26.70;20.52;;;;;;;10.82;100.00;100669.63;5331059;27;20472;-83
2022/12/22 11:38:19;;;;;;;29.02;21.85;;;;;;;10.37;100.00;100669.38;5324288;28;20032;-82
2022/12/22 11:41:00;;;;;;;29.80;20.83;;;;;;;9.90;100.00;100665.81;5325483;27;20111;-82
2022/12/22 11:43:58;;;;;;;32.53;21.52;;;;;;;10.06;100.00;100673.22;5326209;28;20372;-82
2022/12/22 11:46:40;;;;;;;30.25;22.58;;;;;;;9.73;100.00;100662.91;5324598;28;20516;-82
2022/12/22 11:49:11;;;;;;;29.33;22.23;;;;;;;10.16;100.00;100674.88;5322537;28;20069;-82
2022/12/22 11:51:48;;;;;;;33.00;22.38;;;;;;;10.60;100.00;100679.69;5326203;28;20028;-82
2022/12/22 11:54:38;;;;;;;30.88;21.98;;;;;;;10.46;100.00;100674.84;5341640;27;20114;-83
2022/12/22 11:57:21;;;;;;;27.33;20.92;;;;;;;10.14;100.00;100673.34;5317106;27;20029;-82
2022/12/22 12:00:08;;;;;;;28.45;21.85;;;;;;;10.23;100.00;100670.66;5321615;27;20046;-82
2022/12/22 12:02:58;;;;;;;26.63;19.42;;;;;;;10.14;100.00;100658.19;5321246;27;20031;-82
2022/12/22 12:05:47;;;;;;;24.80;17.95;;;;;;;10.06;100.00;100655.41;5328277;27;20365;-82
2022/12/22 12:08:52;;;;;;;25.05;17.27;;;;;;;10.11;100.00;100653.16;5325837;28;20043;-82
2022/12/22 12:11:42;;;;;;;22.27;16.25;;;;;;;10.38;100.00;100655.09;5325963;28;20054;-82
2022/12/22 12:14:26;;;;;;;21.80;15.57;;;;;;;10.06;100.00;100638.59;5324504;27;20548;-82
2022/12/22 12:17:06;;;;;;;19.63;15.38;;;;;;;9.52;100.00;100633.75;5335351;27;20028;-83
2022/12/22 12:19:56;;;;;;;21.63;15.05;;;;;;;9.51;100.00;100631.25;5326269;27;20070;-83
2022/12/22 12:22:52;;;;;;;22.85;15.43;;;;;;;9.48;100.00;100631.50;5332538;27;20484;-83
2022/12/22 12:26:01;;;;;;;19.38;15.27;;;;;;;9.55;100.00;100622.81;5327230;27;20142;-82
2022/12/22 12:29:02;;;;;;;22.80;15.80;;;;;;;9.72;100.00;100618.59;5325043;27;20023;-82
2022/12/22 12:31:41;;;;;;;20.42;14.45;;;;;;;9.81;100.00;100616.91;5330413;27;20085;-82
2022/12/22 12:34:15;;;;;;;19.30;13.80;;;;;;;9.76;100.00;100613.81;5333771;27;20020;-82
2022/12/22 12:37:14;;;;;;;20.73;14.05;;;;;;;9.82;100.00;100618.59;5330964;27;20816;-82
2022/12/22 12:40:10;;;;;;;18.85;13.63;;;;;;;9.79;100.00;100611.72;5332617;27;20474;-82
2022/12/22 12:42:44;;;;;;;20.17;14.40;;;;;;;9.40;100.00;100603.78;5309183;27;20032;-83
2022/12/22 12:45:35;;;;;;;21.92;14.50;;;;;;;9.37;100.00;100611.19;5320455;27;20063;-82
2022/12/22 12:48:24;;;;;;;20.15;14.35;;;;;;;9.31;100.00;100611.75;5341251;27;20035;-84
2022/12/22 12:50:56;;;;;;;25.98;16.75;;;;;;;9.22;100.00;100610.75;5323747;27;20028;-83
2022/12/22 12:53:28;;;;;;;24.30;16.17;;;;;;;9.18;100.00;100620.00;5323720;27;20031;-82
2022/12/22 12:56:03;;;;;;;24.45;16.25;;;;;;;9.26;100.00;100615.69;5322182;27;20130;-81
2022/12/22 12:58:38;;;;;;;23.95;16.85;;;;;;;9.22;100.00;100608.09;5327580;27;20124;-82
2022/12/22 13:01:18;;;;;;;28.10;17.52;;;;;;;9.54;100.00;100602.50;5322703;27;20046;-81
2022/12/22 13:03:49;;;;;;;25.10;17.60;;;;;;;9.94;100.00;100603.25;5341522;27;20036;-81
2022/12/22 13:06:45;;;;;;;21.95;17.90;;;;;;;11.29;100.00;100608.06;5308774;27;20044;-82
2022/12/22 13:09:26;;;;;;;18.83;14.60;;;;;;;11.67;100.00;100614.91;5305933;28;20105;-82
2022/12/22 13:12:37;;;;;;;21.50;15.57;;;;;;;11.58;100.00;100607.84;5313978;27;20499;-82
2022/12/22 13:15:33;;;;;;;22.42;15.68;;;;;;;10.63;100.00;100603.91;5313946;27;20016;-82
2022/12/22 13:18:28;;;;;;;21.00;16.98;;;;;;;10.15;100.00;100603.06;5322342;27;20024;-82
2022/12/22 13:21:13;;;;;;;23.23;18.30;;;;;;;9.69;100.00;100607.38;5290738;27;20126;-82
2022/12/22 13:23:54;;;;;;;24.58;17.83;;;;;;;9.37;100.00;100596.06;5317263;27;20181;-82
2022/12/22 13:26:30;;;;;;;22.35;17.33;;;;;;;9.23;100.00;100621.28;5303414;27;20037;-82
2022/12/22 13:29:22;;;;;;;24.05;17.30;;;;;;;9.05;100.00;100606.97;5318440;28;20032;-82
2022/12/22 13:32:03;;;;;;;14.60;12.18;;;;;;;8.94;100.00;100615.06;5314186;27;20346;-82
2022/12/22 13:34:48;;;;;;;17.60;12.23;;;;;;;8.89;100.00;100603.03;5332428;27;20380;-82
2022/12/22 13:37:25;;;;;;;18.67;12.60;;;;;;;8.93;100.00;100600.09;5312842;27;20432;-82
2022/12/22 13:40:25;;;;;;;18.23;12.55;;;;;;;9.03;100.00;100596.47;5335752;27;20032;-82
2022/12/22 13:43:09;;;;;;;15.18;11.15;;;;;;;9.01;100.00;100585.13;5325918;27;20031;-82
2022/12/22 13:45:49;;;;;;;19.08;12.73;;;;;;;9.07;100.00;100578.41;5326263;27;20081;-82
2022/12/22 13:48:23;;;;;;;14.00;11.10;;;;;;;9.09;100.00;100574.63;5311033;27;20134;-82
2022/12/22 13:51:04;;;;;;;12.52;10.48;;;;;;;9.07;100.00;100575.75;5333092;27;20054;-83
2022/12/22 13:53:45;;;;;;;14.73;11.45;;;;;;;9.01;100.00;100579.81;5310027;27;20028;-83
2022/12/22 13:56:33;;;;;;;15.75;11.90;;;;;;;8.98;100.00;100576.59;5324769;27;20323;-83
2022/12/22 13:59:17;;;;;;;17.83;11.80;;;;;;;9.00;100.00;100566.66;5335976;27;20074;-82
2022/12/22 14:01:50;;;;;;;17.52;11.95;;;;;;;8.90;100.00;100574.59;5327351;27;20031;-82
2022/12/22 14:04:21;;;;;;;15.25;13.23;;;;;;;8.83;100.00;100571.66;5327697;28;20377;-82
2022/12/22 14:06:56;;;;;;;16.00;12.93;;;;;;;8.73;100.00;100560.19;5326400;28;20044;-82
2022/12/22 14:09:27;;;;;;;15.95;12.13;;;;;;;8.68;100.00;100557.94;5325905;28;20111;-83
2022/12/22 14:11:58;;;;;;;15.90;12.45;;;;;;;8.62;100.00;100560.28;5324611;28;20135;-83
2022/12/22 14:14:35;;;;;;;15.65;13.18;;;;;;;8.60;100.00;100571.06;5326101;28;20028;-83
2022/12/22 14:17:20;;;;;;;;;;;;;;;8.57;100.00;100558.03;5328081;27;20024;-82
2022/12/22 14:19:55;;;;;;;14.48;11.95;;;;;;;8.43;100.00;100559.28;5326720;28;19971;-83
2022/12/22 14:22:31;;;;;;;16.67;12.18;;;;;;;8.32;100.00;100552.19;5324975;28;20119;-83
2022/12/22 14:25:17;;;;;;;17.42;13.15;;;;;;;8.22;100.00;100537.19;5306507;28;20019;-83
2022/12/22 14:27:54;;;;;;;16.67;12.47;;;;;;;8.15;100.00;100547.50;5316361;28;20032;-82
2022/12/22 14:30:35;;;;;;;17.23;13.05;;;;;;;8.06;100.00;100538.53;5320430;28;20025;-82
2022/12/22 14:33:33;;;;;;;17.42;14.32;;;;;;;7.94;100.00;100521.00;5320484;28;20051;-81
2022/12/22 14:36:23;;;;;;;18.10;13.85;;;;;;;7.99;100.00;100532.06;5320958;28;20035;-82
2022/12/22 14:38:57;;;;;;;22.80;15.07;;;;;;;7.93;100.00;100524.66;5325034;28;20055;-82
2022/12/22 14:41:40;;;;;;;19.25;14.93;;;;;;;7.90;100.00;100523.09;5327430;27;20070;-80
2022/12/22 14:44:40;;;;;;;21.83;14.35;;;;;;;7.94;100.00;100513.03;5329646;28;20460;-82
2022/12/22 14:47:16;;;;;;;18.67;14.63;;;;;;;7.90;100.00;100517.78;5324909;28;20032;-82
2022/12/22 14:50:12;;;;;;;20.43;14.83;;;;;;;7.88;100.00;100514.41;5325106;28;20143;-82
2022/12/22 14:52:49;;;;;;;20.95;15.43;;;;;;;7.80;100.00;100503.63;5340847;27;20036;-83
2022/12/22 14:55:21;;;;;;;21.25;16.25;;;;;;;7.81;100.00;100515.91;5324378;28;20036;-82
2022/12/22 14:58:02;;;;;;;22.52;16.23;;;;;;;7.80;100.00;100516.91;5320449;28;20099;-82
2022/12/22 15:00:39;;;;;;;23.98;15.80;;;;;;;7.81;100.00;100515.09;5307188;28;20108;-82
2022/12/22 15:03:36;;;;;;;25.38;16.80;;;;;;;7.79;100.00;100507.25;5324734;28;20020;-83
2022/12/22 15:06:26;;;;;;;26.77;16.58;;;;;;;7.79;100.00;100507.25;5324241;28;20123;-83
2022/12/22 15:09:03;;;;;;;24.50;17.13;;;;;;;7.78;100.00;100510.03;5324625;28;20039;-83
2022/12/22 15:11:38;;;;;;;25.48;17.05;;;;;;;7.75;100.00;100505.84;5324610;28;20030;-83
2022/12/22 15:14:18;;;;;;;28.50;18.02;;;;;;;7.79;100.00;100499.28;5324386;28;20426;-82
2022/12/22 15:16:53;;;;;;;25.67;18.20;;;;;;;7.80;100.00;100500.13;5323452;28;20028;-82
2022/12/22 15:19:27;;;;;;;25.23;17.65;;;;;;;7.81;100.00;100493.84;5324724;28;20012;-83
2022/12/22 15:21:59;;;;;;;25.70;19.65;;;;;;;7.78;100.00;100492.28;5325882;28;20051;-83
2022/12/22 15:24:30;;;;;;;24.88;18.38;;;;;;;7.74;100.00;100488.22;5325129;28;20099;-83
2022/12/22 15:27:02;;;;;;;28.52;19.20;;;;;;;7.74;100.00;100489.06;5325440;28;20039;-83
2022/12/22 15:29:33;;;;;;;28.27;19.13;;;;;;;7.79;100.00;100485.19;5323907;28;20063;-83
2022/12/22 15:32:10;;;;;;;26.88;18.85;;;;;;;7.81;100.00;100485.88;5323644;28;20031;-83
2022/12/22 15:34:42;;;;;;;30.90;18.45;;;;;;;7.78;100.00;100491.44;5321710;28;20036;-83
2022/12/22 15:37:14;;;;;;;27.25;18.92;;;;;;;7.79;100.00;100485.19;5327681;28;20059;-83
2022/12/22 15:39:46;;;;;;;25.70;18.60;;;;;;;7.76;100.00;100473.00;5327022;28;20051;-82
2022/12/22 15:42:17;;;;;;;22.00;17.60;;;;;;;7.76;100.00;100462.38;5324851;28;20043;-82
2022/12/22 15:44:49;;;;;;;24.92;17.98;;;;;;;7.78;100.00;100465.72;5323449;28;20031;-82
2022/12/22 15:47:20;;;;;;;24.60;17.40;;;;;;;7.78;100.00;100468.38;5324374;28;20048;-82
2022/12/22 15:49:52;;;;;;;24.13;18.25;;;;;;;7.79;100.00;100466.59;5325985;28;20495;-82
2022/12/22 15:52:26;;;;;;;24.23;19.00;;;;;;;7.81;100.00;100460.16;5325710;27;20032;-82
2022/12/22 15:54:58;;;;;;;26.50;18.70;;;;;;;7.83;100.00;100455.56;5324358;28;20380;-82
2022/12/22 15:57:30;;;;;;;23.05;17.73;;;;;;;7.84;100.00;100459.06;5323658;27;20036;-82
2022/12/22 16:00:02;;;;;;;21.65;17.63;;;;;;;7.88;100.00;100449.84;5323068;28;20495;-82
2022/12/22 16:02:34;;;;;;;22.65;17.38;;;;;;;7.89;100.00;100446.22;5323023;28;20110;-82
2022/12/22 16:05:06;;;;;;;21.70;17.45;;;;;;;7.89;100.00;100441.75;5324675;28;20412;-82
2022/12/22 16:07:39;;;;;;;24.20;17.30;;;;;;;7.96;100.00;100439.41;5325874;28;20110;-82
2022/12/22 16:10:29;;;;;;;26.95;19.27;;;;;;;7.95;100.00;100441.19;5325334;27;20593;-82
2022/12/22 16:13:02;;;;;;;23.27;18.25;;;;;;;8.00;100.00;100434.66;5323450;28;20024;-82
2022/12/22 16:15:36;;;;;;;22.77;17.13;;;;;;;8.01;100.00;100428.34;5325647;27;20141;-82
2022/12/22 16:18:11;;;;;;;20.95;18.17;;;;;;;8.04;100.00;100428.91;5323956;28;20099;-82
2022/12/22 16:20:43;;;;;;;21.33;18.02;;;;;;;8.05;100.00;100416.50;5324026;28;20024;-82